sensor_id;sensor_type;location;lat;lon;timestamp;P1;durP1;ratioP1;P2;durP2;ratioP2
4186;SDS011;2107;52.306;10.484;2023-05-10T00:00:37;0.60;;;0.60;;
4186;SDS011;2107;52.306;10.484;2023-05-10T00:03:04;0.70;;;0.70;;
4186;SDS011;2107;52.306;10.484;2023-05-10T00:05:31;0.60;;;0.60;;
4186;SDS011;2107;52.306;10.484;2023-05-10T00:07:58;0.80;;;0.80;;
4186;SDS011;2107;52.306;10.484;2023-05-10T00:10:25;1.30;;;1.30;;
4186;SDS011;2107;52.306;10.484;2023-05-10T00:12:51;1.40;;;1.40;;
4186;SDS011;2107;52.306;10.484;2023-05-10T00:15:18;1.10;;;1.10;;
4186;SDS011;2107;52.306;10.484;2023-05-10T00:17:46;1.10;;;1.10;;
4186;SDS011;2107;52.306;10.484;2023-05-10T00:20:13;1.00;;;1.00;;
4186;SDS011;2107;52.306;10.484;2023-05-10T00:22:40;1.03;;;1.03;;
4186;SDS011;2107;52.306;10.484;2023-05-10T00:25:08;1.00;;;1.00;;
4186;SDS011;2107;52.306;10.484;2023-05-10T00:27:35;0.90;;;0.90;;
4186;SDS011;2107;52.306;10.484;2023-05-10T00:30:02;0.97;;;0.97;;
4186;SDS011;2107;52.306;10.484;2023-05-10T00:32:29;1.00;;;1.00;;
4186;SDS011;2107;52.306;10.484;2023-05-10T00:34:58;1.00;;;1.00;;
4186;SDS011;2107;52.306;10.484;2023-05-10T00:37:24;1.20;;;1.20;;
4186;SDS011;2107;52.306;10.484;2023-05-10T00:39:51;1.00;;;1.00;;
4186;SDS011;2107;52.306;10.484;2023-05-10T00:42:18;1.30;;;1.30;;
4186;SDS011;2107;52.306;10.484;2023-05-10T00:44:45;1.00;;;1.00;;
4186;SDS011;2107;52.306;10.484;2023-05-10T00:47:12;1.40;;;1.40;;
4186;SDS011;2107;52.306;10.484;2023-05-10T00:49:38;1.40;;;1.40;;
4186;SDS011;2107;52.306;10.484;2023-05-10T00:52:08;1.00;;;1.00;;
4186;SDS011;2107;52.306;10.484;2023-05-10T00:54:35;1.00;;;1.00;;
4186;SDS011;2107;52.306;10.484;2023-05-10T00:57:02;1.10;;;1.10;;
4186;SDS011;2107;52.306;10.484;2023-05-10T00:59:29;1.20;;;1.20;;
4186;SDS011;2107;52.306;10.484;2023-05-10T01:01:56;1.10;;;1.10;;
4186;SDS011;2107;52.306;10.484;2023-05-10T01:04:24;1.50;;;1.50;;
4186;SDS011;2107;52.306;10.484;2023-05-10T01:06:51;1.60;;;1.60;;
4186;SDS011;2107;52.306;10.484;2023-05-10T01:09:20;1.50;;;1.50;;
4186;SDS011;2107;52.306;10.484;2023-05-10T01:11:47;1.30;;;1.30;;
4186;SDS011;2107;52.306;10.484;2023-05-10T01:14:15;0.90;;;0.90;;
4186;SDS011;2107;52.306;10.484;2023-05-10T01:16:44;0.90;;;0.90;;
4186;SDS011;2107;52.306;10.484;2023-05-10T01:19:16;1.00;;;1.00;;
4186;SDS011;2107;52.306;10.484;2023-05-10T01:21:48;0.93;;;0.93;;
4186;SDS011;2107;52.306;10.484;2023-05-10T01:24:31;1.00;;;1.00;;
4186;SDS011;2107;52.306;10.484;2023-05-10T01:30:35;1.10;;;1.10;;
4186;SDS011;2107;52.306;10.484;2023-05-10T01:33:19;0.60;;;0.60;;
4186;SDS011;2107;52.306;10.484;2023-05-10T01:35:51;0.60;;;0.60;;
4186;SDS011;2107;52.306;10.484;2023-05-10T01:38:26;0.50;;;0.50;;
4186;SDS011;2107;52.306;10.484;2023-05-10T01:41:01;0.50;;;0.50;;
4186;SDS011;2107;52.306;10.484;2023-05-10T01:43:39;0.60;;;0.60;;
4186;SDS011;2107;52.306;10.484;2023-05-10T01:46:14;0.70;;;0.70;;
4186;SDS011;2107;52.306;10.484;2023-05-10T01:48:47;0.57;;;0.57;;
4186;SDS011;2107;52.306;10.484;2023-05-10T01:51:15;0.60;;;0.60;;
4186;SDS011;2107;52.306;10.484;2023-05-10T01:53:47;0.70;;;0.70;;
4186;SDS011;2107;52.306;10.484;2023-05-10T01:56:18;0.70;;;0.70;;
4186;SDS011;2107;52.306;10.484;2023-05-10T01:58:48;0.73;;;0.73;;
4186;SDS011;2107;52.306;10.484;2023-05-10T02:01:16;0.60;;;0.60;;
4186;SDS011;2107;52.306;10.484;2023-05-10T02:03:48;0.80;;;0.80;;
4186;SDS011;2107;52.306;10.484;2023-05-10T02:06:16;1.10;;;1.10;;
4186;SDS011;2107;52.306;10.484;2023-05-10T02:08:46;0.90;;;0.90;;
4186;SDS011;2107;52.306;10.484;2023-05-10T02:11:15;0.90;;;0.90;;
4186;SDS011;2107;52.306;10.484;2023-05-10T02:13:46;0.80;;;0.80;;
4186;SDS011;2107;52.306;10.484;2023-05-10T02:16:15;0.90;;;0.90;;
4186;SDS011;2107;52.306;10.484;2023-05-10T02:18:43;0.77;;;0.77;;
4186;SDS011;2107;52.306;10.484;2023-05-10T02:21:12;0.93;;;0.93;;
4186;SDS011;2107;52.306;10.484;2023-05-10T02:23:40;0.90;;;0.90;;
4186;SDS011;2107;52.306;10.484;2023-05-10T02:26:08;0.80;;;0.80;;
4186;SDS011;2107;52.306;10.484;2023-05-10T02:28:36;1.00;;;1.00;;
4186;SDS011;2107;52.306;10.484;2023-05-10T02:31:05;0.80;;;0.80;;
4186;SDS011;2107;52.306;10.484;2023-05-10T02:33:34;0.90;;;0.90;;
4186;SDS011;2107;52.306;10.484;2023-05-10T02:36:02;0.90;;;0.90;;
4186;SDS011;2107;52.306;10.484;2023-05-10T02:38:31;0.90;;;0.90;;
4186;SDS011;2107;52.306;10.484;2023-05-10T02:40:59;0.77;;;0.77;;
4186;SDS011;2107;52.306;10.484;2023-05-10T02:43:27;0.70;;;0.70;;
4186;SDS011;2107;52.306;10.484;2023-05-10T02:45:57;0.60;;;0.60;;
4186;SDS011;2107;52.306;10.484;2023-05-10T02:48:24;0.80;;;0.80;;
4186;SDS011;2107;52.306;10.484;2023-05-10T02:50:52;0.73;;;0.73;;
4186;SDS011;2107;52.306;10.484;2023-05-10T02:53:22;0.60;;;0.60;;
4186;SDS011;2107;52.306;10.484;2023-05-10T02:55:52;0.70;;;0.70;;
4186;SDS011;2107;52.306;10.484;2023-05-10T02:58:23;0.60;;;0.60;;
4186;SDS011;2107;52.306;10.484;2023-05-10T03:00:50;0.60;;;0.60;;
4186;SDS011;2107;52.306;10.484;2023-05-10T03:03:17;0.60;;;0.60;;
4186;SDS011;2107;52.306;10.484;2023-05-10T03:05:44;0.70;;;0.70;;
4186;SDS011;2107;52.306;10.484;2023-05-10T03:08:11;0.70;;;0.70;;
4186;SDS011;2107;52.306;10.484;2023-05-10T03:10:40;0.70;;;0.70;;
4186;SDS011;2107;52.306;10.484;2023-05-10T03:13:29;0.77;;;0.77;;
4186;SDS011;2107;52.306;10.484;2023-05-10T03:16:04;0.70;;;0.70;;
4186;SDS011;2107;52.306;10.484;2023-05-10T03:18:36;0.60;;;0.60;;
4186;SDS011;2107;52.306;10.484;2023-05-10T03:21:10;0.60;;;0.60;;
4186;SDS011;2107;52.306;10.484;2023-05-10T03:23:40;0.60;;;0.60;;
4186;SDS011;2107;52.306;10.484;2023-05-10T03:26:09;0.60;;;0.60;;
4186;SDS011;2107;52.306;10.484;2023-05-10T03:28:43;0.50;;;0.50;;
4186;SDS011;2107;52.306;10.484;2023-05-10T03:31:10;0.70;;;0.70;;
4186;SDS011;2107;52.306;10.484;2023-05-10T03:33:45;0.60;;;0.60;;
4186;SDS011;2107;52.306;10.484;2023-05-10T03:36:12;0.70;;;0.70;;
4186;SDS011;2107;52.306;10.484;2023-05-10T03:38:39;0.80;;;0.80;;
4186;SDS011;2107;52.306;10.484;2023-05-10T03:41:06;0.70;;;0.70;;
4186;SDS011;2107;52.306;10.484;2023-05-10T03:43:33;0.60;;;0.60;;
4186;SDS011;2107;52.306;10.484;2023-05-10T03:46:02;0.50;;;0.50;;
4186;SDS011;2107;52.306;10.484;2023-05-10T03:48:30;0.60;;;0.60;;
4186;SDS011;2107;52.306;10.484;2023-05-10T03:50:58;0.50;;;0.50;;
4186;SDS011;2107;52.306;10.484;2023-05-10T03:53:25;0.40;;;0.40;;
4186;SDS011;2107;52.306;10.484;2023-05-10T03:55:52;0.53;;;0.53;;
4186;SDS011;2107;52.306;10.484;2023-05-10T03:58:19;0.67;;;0.67;;
4186;SDS011;2107;52.306;10.484;2023-05-10T04:00:46;0.57;;;0.57;;
4186;SDS011;2107;52.306;10.484;2023-05-10T04:03:15;0.70;;;0.70;;
4186;SDS011;2107;52.306;10.484;2023-05-10T04:05:42;0.70;;;0.70;;
4186;SDS011;2107;52.306;10.484;2023-05-10T04:08:09;0.80;;;0.80;;
4186;SDS011;2107;52.306;10.484;2023-05-10T04:10:36;0.73;;;0.73;;
4186;SDS011;2107;52.306;10.484;2023-05-10T04:13:03;0.60;;;0.60;;
4186;SDS011;2107;52.306;10.484;2023-05-10T04:15:30;0.90;;;0.90;;
4186;SDS011;2107;52.306;10.484;2023-05-10T04:17:57;0.80;;;0.80;;
4186;SDS011;2107;52.306;10.484;2023-05-10T04:20:25;0.90;;;0.90;;
4186;SDS011;2107;52.306;10.484;2023-05-10T04:22:52;1.00;;;1.00;;
4186;SDS011;2107;52.306;10.484;2023-05-10T04:25:19;1.00;;;1.00;;
4186;SDS011;2107;52.306;10.484;2023-05-10T04:27:45;0.80;;;0.80;;
4186;SDS011;2107;52.306;10.484;2023-05-10T04:30:12;1.00;;;1.00;;
4186;SDS011;2107;52.306;10.484;2023-05-10T04:32:39;1.00;;;1.00;;
4186;SDS011;2107;52.306;10.484;2023-05-10T04:35:06;1.10;;;1.10;;
4186;SDS011;2107;52.306;10.484;2023-05-10T04:37:36;0.90;;;0.90;;
4186;SDS011;2107;52.306;10.484;2023-05-10T04:40:03;0.80;;;0.80;;
4186;SDS011;2107;52.306;10.484;2023-05-10T04:42:31;0.70;;;0.70;;
4186;SDS011;2107;52.306;10.484;2023-05-10T04:44:58;0.90;;;0.90;;
4186;SDS011;2107;52.306;10.484;2023-05-10T04:47:25;0.80;;;0.80;;
4186;SDS011;2107;52.306;10.484;2023-05-10T04:49:51;0.80;;;0.80;;
4186;SDS011;2107;52.306;10.484;2023-05-10T04:52:18;0.83;;;0.83;;
4186;SDS011;2107;52.306;10.484;2023-05-10T04:54:46;0.80;;;0.80;;
4186;SDS011;2107;52.306;10.484;2023-05-10T04:57:13;0.77;;;0.77;;
4186;SDS011;2107;52.306;10.484;2023-05-10T04:59:40;1.00;;;1.00;;
4186;SDS011;2107;52.306;10.484;2023-05-10T05:02:07;0.60;;;0.60;;
4186;SDS011;2107;52.306;10.484;2023-05-10T05:04:34;0.70;;;0.70;;
4186;SDS011;2107;52.306;10.484;2023-05-10T05:07:01;0.60;;;0.60;;
4186;SDS011;2107;52.306;10.484;2023-05-10T05:09:28;0.80;;;0.80;;
4186;SDS011;2107;52.306;10.484;2023-05-10T05:11:58;0.73;;;0.73;;
4186;SDS011;2107;52.306;10.484;2023-05-10T05:14:25;0.80;;;0.80;;
4186;SDS011;2107;52.306;10.484;2023-05-10T05:16:52;0.90;;;0.90;;
4186;SDS011;2107;52.306;10.484;2023-05-10T05:19:19;0.60;;;0.60;;
4186;SDS011;2107;52.306;10.484;2023-05-10T05:21:46;0.60;;;0.60;;
4186;SDS011;2107;52.306;10.484;2023-05-10T05:24:13;0.60;;;0.60;;
4186;SDS011;2107;52.306;10.484;2023-05-10T05:26:40;0.70;;;0.70;;
4186;SDS011;2107;52.306;10.484;2023-05-10T05:29:08;0.60;;;0.60;;
4186;SDS011;2107;52.306;10.484;2023-05-10T05:31:35;0.77;;;0.77;;
4186;SDS011;2107;52.306;10.484;2023-05-10T05:34:01;0.63;;;0.63;;
4186;SDS011;2107;52.306;10.484;2023-05-10T05:36:28;1.10;;;1.10;;
4186;SDS011;2107;52.306;10.484;2023-05-10T05:38:55;0.73;;;0.73;;
4186;SDS011;2107;52.306;10.484;2023-05-10T05:41:22;0.60;;;0.60;;
4186;SDS011;2107;52.306;10.484;2023-05-10T05:43:50;0.80;;;0.80;;
4186;SDS011;2107;52.306;10.484;2023-05-10T05:46:18;0.60;;;0.60;;
4186;SDS011;2107;52.306;10.484;2023-05-10T05:48:45;0.70;;;0.70;;
4186;SDS011;2107;52.306;10.484;2023-05-10T05:51:11;0.90;;;0.90;;
4186;SDS011;2107;52.306;10.484;2023-05-10T05:53:39;0.60;;;0.60;;
4186;SDS011;2107;52.306;10.484;2023-05-10T05:56:05;0.67;;;0.67;;
4186;SDS011;2107;52.306;10.484;2023-05-10T05:58:33;0.70;;;0.70;;
4186;SDS011;2107;52.306;10.484;2023-05-10T06:00:59;0.80;;;0.80;;
4186;SDS011;2107;52.306;10.484;2023-05-10T06:03:28;0.70;;;0.70;;
4186;SDS011;2107;52.306;10.484;2023-05-10T06:05:55;0.70;;;0.70;;
4186;SDS011;2107;52.306;10.484;2023-05-10T06:08:21;0.60;;;0.60;;
4186;SDS011;2107;52.306;10.484;2023-05-10T06:10:48;0.70;;;0.70;;
4186;SDS011;2107;52.306;10.484;2023-05-10T06:13:15;0.80;;;0.80;;
4186;SDS011;2107;52.306;10.484;2023-05-10T06:15:42;0.90;;;0.90;;
4186;SDS011;2107;52.306;10.484;2023-05-10T06:18:09;0.60;;;0.60;;
4186;SDS011;2107;52.306;10.484;2023-05-10T06:20:37;0.50;;;0.50;;
4186;SDS011;2107;52.306;10.484;2023-05-10T06:23:04;0.80;;;0.80;;
4186;SDS011;2107;52.306;10.484;2023-05-10T06:25:31;0.70;;;0.70;;
4186;SDS011;2107;52.306;10.484;2023-05-10T06:27:57;0.80;;;0.80;;
4186;SDS011;2107;52.306;10.484;2023-05-10T06:30:25;0.60;;;0.60;;
4186;SDS011;2107;52.306;10.484;2023-05-10T06:32:53;0.63;;;0.63;;
4186;SDS011;2107;52.306;10.484;2023-05-10T06:35:21;0.93;;;0.93;;
4186;SDS011;2107;52.306;10.484;2023-05-10T06:37:49;0.50;;;0.50;;
4186;SDS011;2107;52.306;10.484;2023-05-10T06:40:17;0.40;;;0.40;;
4186;SDS011;2107;52.306;10.484;2023-05-10T06:42:44;0.60;;;0.60;;
4186;SDS011;2107;52.306;10.484;2023-05-10T06:45:11;0.60;;;0.60;;
4186;SDS011;2107;52.306;10.484;2023-05-10T06:47:39;0.70;;;0.70;;
4186;SDS011;2107;52.306;10.484;2023-05-10T06:50:06;0.60;;;0.60;;
4186;SDS011;2107;52.306;10.484;2023-05-10T06:52:34;0.50;;;0.50;;
4186;SDS011;2107;52.306;10.484;2023-05-10T06:55:02;0.60;;;0.60;;
4186;SDS011;2107;52.306;10.484;2023-05-10T06:57:29;0.53;;;0.53;;
4186;SDS011;2107;52.306;10.484;2023-05-10T06:59:56;0.60;;;0.60;;
4186;SDS011;2107;52.306;10.484;2023-05-10T07:02:23;0.70;;;0.70;;
4186;SDS011;2107;52.306;10.484;2023-05-10T07:04:50;0.90;;;0.90;;
4186;SDS011;2107;52.306;10.484;2023-05-10T07:07:17;0.93;;;0.93;;
4186;SDS011;2107;52.306;10.484;2023-05-10T07:09:44;0.80;;;0.80;;
4186;SDS011;2107;52.306;10.484;2023-05-10T07:12:12;0.70;;;0.70;;
4186;SDS011;2107;52.306;10.484;2023-05-10T07:14:39;0.90;;;0.90;;
4186;SDS011;2107;52.306;10.484;2023-05-10T07:17:06;0.70;;;0.70;;
4186;SDS011;2107;52.306;10.484;2023-05-10T07:19:33;1.20;;;1.20;;
4186;SDS011;2107;52.306;10.484;2023-05-10T07:22:00;0.90;;;0.90;;
4186;SDS011;2107;52.306;10.484;2023-05-10T07:24:27;1.00;;;1.00;;
4186;SDS011;2107;52.306;10.484;2023-05-10T07:26:54;0.97;;;0.97;;
4186;SDS011;2107;52.306;10.484;2023-05-10T07:29:22;1.10;;;1.10;;
4186;SDS011;2107;52.306;10.484;2023-05-10T07:31:49;0.57;;;0.57;;
4186;SDS011;2107;52.306;10.484;2023-05-10T07:34:15;0.50;;;0.50;;
4186;SDS011;2107;52.306;10.484;2023-05-10T07:36:42;0.20;;;0.20;;
4186;SDS011;2107;52.306;10.484;2023-05-10T07:39:09;0.20;;;0.20;;
4186;SDS011;2107;52.306;10.484;2023-05-10T07:41:36;0.20;;;0.20;;
4186;SDS011;2107;52.306;10.484;2023-05-10T07:44:03;0.20;;;0.20;;
4186;SDS011;2107;52.306;10.484;2023-05-10T07:46:32;0.20;;;0.20;;
4186;SDS011;2107;52.306;10.484;2023-05-10T07:48:59;0.20;;;0.20;;
4186;SDS011;2107;52.306;10.484;2023-05-10T07:51:26;0.20;;;0.20;;
4186;SDS011;2107;52.306;10.484;2023-05-10T07:53:53;0.20;;;0.20;;
4186;SDS011;2107;52.306;10.484;2023-05-10T07:56:20;0.20;;;0.20;;
4186;SDS011;2107;52.306;10.484;2023-05-10T07:58:50;0.20;;;0.20;;
4186;SDS011;2107;52.306;10.484;2023-05-10T08:01:17;0.20;;;0.20;;
4186;SDS011;2107;52.306;10.484;2023-05-10T08:03:45;0.10;;;0.10;;
4186;SDS011;2107;52.306;10.484;2023-05-10T08:06:12;0.20;;;0.20;;
4186;SDS011;2107;52.306;10.484;2023-05-10T08:08:40;0.30;;;0.30;;
4186;SDS011;2107;52.306;10.484;2023-05-10T08:11:07;0.70;;;0.70;;
4186;SDS011;2107;52.306;10.484;2023-05-10T08:13:34;1.00;;;1.00;;
4186;SDS011;2107;52.306;10.484;2023-05-10T08:16:00;1.00;;;1.00;;
4186;SDS011;2107;52.306;10.484;2023-05-10T08:18:27;1.20;;;1.20;;
4186;SDS011;2107;52.306;10.484;2023-05-10T08:20:55;1.70;;;1.70;;
4186;SDS011;2107;52.306;10.484;2023-05-10T08:23:22;1.50;;;1.50;;
4186;SDS011;2107;52.306;10.484;2023-05-10T08:25:49;1.60;;;1.60;;
4186;SDS011;2107;52.306;10.484;2023-05-10T08:28:16;1.90;;;1.90;;
4186;SDS011;2107;52.306;10.484;2023-05-10T08:30:43;1.60;;;1.60;;
4186;SDS011;2107;52.306;10.484;2023-05-10T08:33:10;1.50;;;1.50;;
4186;SDS011;2107;52.306;10.484;2023-05-10T08:35:37;0.83;;;0.83;;
4186;SDS011;2107;52.306;10.484;2023-05-10T08:38:05;0.93;;;0.93;;
4186;SDS011;2107;52.306;10.484;2023-05-10T08:40:32;0.50;;;0.50;;
4186;SDS011;2107;52.306;10.484;2023-05-10T08:43:02;0.50;;;0.50;;
4186;SDS011;2107;52.306;10.484;2023-05-10T08:45:32;0.40;;;0.40;;
4186;SDS011;2107;52.306;10.484;2023-05-10T08:48:01;0.30;;;0.30;;
4186;SDS011;2107;52.306;10.484;2023-05-10T08:50:29;0.30;;;0.30;;
4186;SDS011;2107;52.306;10.484;2023-05-10T08:52:57;0.23;;;0.23;;
4186;SDS011;2107;52.306;10.484;2023-05-10T08:55:28;0.20;;;0.20;;
4186;SDS011;2107;52.306;10.484;2023-05-10T08:57:55;0.30;;;0.30;;
4186;SDS011;2107;52.306;10.484;2023-05-10T09:00:22;0.20;;;0.20;;
4186;SDS011;2107;52.306;10.484;2023-05-10T09:02:49;0.20;;;0.20;;
4186;SDS011;2107;52.306;10.484;2023-05-10T09:05:16;0.20;;;0.20;;
4186;SDS011;2107;52.306;10.484;2023-05-10T09:07:43;0.20;;;0.20;;
4186;SDS011;2107;52.306;10.484;2023-05-10T09:10:11;0.20;;;0.20;;
4186;SDS011;2107;52.306;10.484;2023-05-10T09:12:40;0.10;;;0.10;;
4186;SDS011;2107;52.306;10.484;2023-05-10T09:15:09;0.10;;;0.10;;
4186;SDS011;2107;52.306;10.484;2023-05-10T09:17:37;0.10;;;0.10;;
4186;SDS011;2107;52.306;10.484;2023-05-10T09:20:06;0.10;;;0.10;;
4186;SDS011;2107;52.306;10.484;2023-05-10T09:22:33;0.10;;;0.10;;
4186;SDS011;2107;52.306;10.484;2023-05-10T09:25:04;0.10;;;0.10;;
4186;SDS011;2107;52.306;10.484;2023-05-10T09:27:32;0.10;;;0.10;;
4186;SDS011;2107;52.306;10.484;2023-05-10T09:30:00;0.10;;;0.10;;
4186;SDS011;2107;52.306;10.484;2023-05-10T09:32:36;0.10;;;0.10;;
4186;SDS011;2107;52.306;10.484;2023-05-10T09:35:07;0.00;;;0.00;;
4186;SDS011;2107;52.306;10.484;2023-05-10T09:37:35;0.00;;;0.00;;
4186;SDS011;2107;52.306;10.484;2023-05-10T09:40:04;0.00;;;0.00;;
4186;SDS011;2107;52.306;10.484;2023-05-10T09:42:32;0.00;;;0.00;;
4186;SDS011;2107;52.306;10.484;2023-05-10T09:45:02;0.00;;;0.00;;
4186;SDS011;2107;52.306;10.484;2023-05-10T09:47:31;0.00;;;0.00;;
4186;SDS011;2107;52.306;10.484;2023-05-10T09:49:58;0.00;;;0.00;;
4186;SDS011;2107;52.306;10.484;2023-05-10T09:52:28;0.00;;;0.00;;
4186;SDS011;2107;52.306;10.484;2023-05-10T09:54:55;0.00;;;0.00;;
4186;SDS011;2107;52.306;10.484;2023-05-10T09:57:23;0.00;;;0.00;;
4186;SDS011;2107;52.306;10.484;2023-05-10T09:59:50;0.00;;;0.00;;
4186;SDS011;2107;52.306;10.484;2023-05-10T10:02:20;0.10;;;0.10;;
4186;SDS011;2107;52.306;10.484;2023-05-10T10:04:54;0.10;;;0.10;;
4186;SDS011;2107;52.306;10.484;2023-05-10T10:07:22;0.10;;;0.10;;
4186;SDS011;2107;52.306;10.484;2023-05-10T10:09:50;0.10;;;0.10;;
4186;SDS011;2107;52.306;10.484;2023-05-10T10:12:18;0.10;;;0.10;;
4186;SDS011;2107;52.306;10.484;2023-05-10T10:14:45;0.10;;;0.10;;
4186;SDS011;2107;52.306;10.484;2023-05-10T10:17:14;0.10;;;0.10;;
4186;SDS011;2107;52.306;10.484;2023-05-10T10:19:42;0.30;;;0.30;;
4186;SDS011;2107;52.306;10.484;2023-05-10T10:22:11;0.20;;;0.20;;
4186;SDS011;2107;52.306;10.484;2023-05-10T10:24:38;0.20;;;0.20;;
4186;SDS011;2107;52.306;10.484;2023-05-10T10:27:11;0.30;;;0.30;;
4186;SDS011;2107;52.306;10.484;2023-05-10T10:29:47;0.20;;;0.20;;
4186;SDS011;2107;52.306;10.484;2023-05-10T10:32:26;0.30;;;0.30;;
4186;SDS011;2107;52.306;10.484;2023-05-10T10:35:00;0.20;;;0.20;;
4186;SDS011;2107;52.306;10.484;2023-05-10T10:37:40;0.20;;;0.20;;
4186;SDS011;2107;52.306;10.484;2023-05-10T10:42:52;0.20;;;0.20;;
4186;SDS011;2107;52.306;10.484;2023-05-10T10:45:19;0.20;;;0.20;;
4186;SDS011;2107;52.306;10.484;2023-05-10T10:47:47;0.20;;;0.20;;
4186;SDS011;2107;52.306;10.484;2023-05-10T10:50:16;0.30;;;0.30;;
4186;SDS011;2107;52.306;10.484;2023-05-10T10:52:43;0.30;;;0.30;;
4186;SDS011;2107;52.306;10.484;2023-05-10T10:55:10;0.50;;;0.50;;
4186;SDS011;2107;52.306;10.484;2023-05-10T10:57:42;0.80;;;0.80;;
4186;SDS011;2107;52.306;10.484;2023-05-10T11:00:17;1.10;;;1.10;;
4186;SDS011;2107;52.306;10.484;2023-05-10T11:02:50;1.40;;;1.40;;
4186;SDS011;2107;52.306;10.484;2023-05-10T11:08:09;1.70;;;1.70;;
4186;SDS011;2107;52.306;10.484;2023-05-10T11:10:37;1.80;;;1.80;;
4186;SDS011;2107;52.306;10.484;2023-05-10T11:13:05;2.23;;;2.23;;
4186;SDS011;2107;52.306;10.484;2023-05-10T11:15:33;2.07;;;2.07;;
4186;SDS011;2107;52.306;10.484;2023-05-10T11:18:16;2.20;;;2.20;;
4186;SDS011;2107;52.306;10.484;2023-05-10T11:20:45;1.70;;;1.70;;
4186;SDS011;2107;52.306;10.484;2023-05-10T11:23:16;1.70;;;1.70;;
4186;SDS011;2107;52.306;10.484;2023-05-10T11:25:45;1.90;;;1.90;;
4186;SDS011;2107;52.306;10.484;2023-05-10T11:28:13;2.23;;;2.23;;
4186;SDS011;2107;52.306;10.484;2023-05-10T11:30:41;2.90;;;2.90;;
4186;SDS011;2107;52.306;10.484;2023-05-10T11:33:14;3.70;;;3.70;;
4186;SDS011;2107;52.306;10.484;2023-05-10T11:35:42;3.80;;;3.80;;
4186;SDS011;2107;52.306;10.484;2023-05-10T11:38:10;4.30;;;4.30;;
4186;SDS011;2107;52.306;10.484;2023-05-10T11:40:38;3.50;;;3.50;;
4186;SDS011;2107;52.306;10.484;2023-05-10T11:43:05;3.50;;;3.50;;
4186;SDS011;2107;52.306;10.484;2023-05-10T11:45:32;3.50;;;3.50;;
4186;SDS011;2107;52.306;10.484;2023-05-10T11:48:00;3.20;;;3.20;;
4186;SDS011;2107;52.306;10.484;2023-05-10T11:50:27;3.10;;;3.10;;
4186;SDS011;2107;52.306;10.484;2023-05-10T11:52:55;2.73;;;2.73;;
4186;SDS011;2107;52.306;10.484;2023-05-10T11:55:24;3.00;;;3.00;;
4186;SDS011;2107;52.306;10.484;2023-05-10T11:57:52;3.60;;;3.60;;
4186;SDS011;2107;52.306;10.484;2023-05-10T12:00:19;3.20;;;3.20;;
4186;SDS011;2107;52.306;10.484;2023-05-10T12:02:47;3.30;;;3.30;;
4186;SDS011;2107;52.306;10.484;2023-05-10T12:05:15;3.37;;;3.37;;
4186;SDS011;2107;52.306;10.484;2023-05-10T12:07:42;2.80;;;2.80;;
4186;SDS011;2107;52.306;10.484;2023-05-10T12:10:10;2.90;;;2.90;;
4186;SDS011;2107;52.306;10.484;2023-05-10T12:15:12;2.03;;;2.03;;
4186;SDS011;2107;52.306;10.484;2023-05-10T12:17:44;2.10;;;2.10;;
4186;SDS011;2107;52.306;10.484;2023-05-10T12:20:18;1.70;;;1.70;;
4186;SDS011;2107;52.306;10.484;2023-05-10T12:22:46;1.40;;;1.40;;
4186;SDS011;2107;52.306;10.484;2023-05-10T12:25:16;0.90;;;0.90;;
4186;SDS011;2107;52.306;10.484;2023-05-10T12:27:51;1.37;;;1.37;;
4186;SDS011;2107;52.306;10.484;2023-05-10T12:30:20;0.50;;;0.50;;
4186;SDS011;2107;52.306;10.484;2023-05-10T12:32:48;0.80;;;0.80;;
4186;SDS011;2107;52.306;10.484;2023-05-10T12:35:15;0.50;;;0.50;;
4186;SDS011;2107;52.306;10.484;2023-05-10T12:37:42;0.70;;;0.70;;
4186;SDS011;2107;52.306;10.484;2023-05-10T12:40:10;0.70;;;0.70;;
4186;SDS011;2107;52.306;10.484;2023-05-10T12:42:38;0.40;;;0.40;;
4186;SDS011;2107;52.306;10.484;2023-05-10T12:45:07;0.70;;;0.70;;
4186;SDS011;2107;52.306;10.484;2023-05-10T12:47:35;0.80;;;0.80;;
4186;SDS011;2107;52.306;10.484;2023-05-10T12:50:02;0.60;;;0.60;;
4186;SDS011;2107;52.306;10.484;2023-05-10T12:52:30;0.70;;;0.70;;
4186;SDS011;2107;52.306;10.484;2023-05-10T12:54:57;0.80;;;0.80;;
4186;SDS011;2107;52.306;10.484;2023-05-10T12:57:24;0.50;;;0.50;;
4186;SDS011;2107;52.306;10.484;2023-05-10T12:59:51;0.60;;;0.60;;
4186;SDS011;2107;52.306;10.484;2023-05-10T13:02:19;0.80;;;0.80;;
4186;SDS011;2107;52.306;10.484;2023-05-10T13:04:48;0.50;;;0.50;;
4186;SDS011;2107;52.306;10.484;2023-05-10T13:07:15;0.70;;;0.70;;
4186;SDS011;2107;52.306;10.484;2023-05-10T13:09:42;0.70;;;0.70;;
4186;SDS011;2107;52.306;10.484;2023-05-10T13:12:08;0.63;;;0.63;;
4186;SDS011;2107;52.306;10.484;2023-05-10T13:14:35;0.60;;;0.60;;
4186;SDS011;2107;52.306;10.484;2023-05-10T13:17:02;0.70;;;0.70;;
4186;SDS011;2107;52.306;10.484;2023-05-10T13:19:31;0.70;;;0.70;;
4186;SDS011;2107;52.306;10.484;2023-05-10T13:21:58;0.50;;;0.50;;
4186;SDS011;2107;52.306;10.484;2023-05-10T13:24:24;0.50;;;0.50;;
4186;SDS011;2107;52.306;10.484;2023-05-10T13:26:51;0.40;;;0.40;;
4186;SDS011;2107;52.306;10.484;2023-05-10T13:29:18;0.53;;;0.53;;
4186;SDS011;2107;52.306;10.484;2023-05-10T13:31:46;0.90;;;0.90;;
4186;SDS011;2107;52.306;10.484;2023-05-10T13:34:12;0.70;;;0.70;;
4186;SDS011;2107;52.306;10.484;2023-05-10T13:36:41;0.60;;;0.60;;
4186;SDS011;2107;52.306;10.484;2023-05-10T13:39:07;0.40;;;0.40;;
4186;SDS011;2107;52.306;10.484;2023-05-10T13:41:34;0.50;;;0.50;;
4186;SDS011;2107;52.306;10.484;2023-05-10T13:44:01;0.70;;;0.70;;
4186;SDS011;2107;52.306;10.484;2023-05-10T13:46:28;0.70;;;0.70;;
4186;SDS011;2107;52.306;10.484;2023-05-10T13:48:55;0.50;;;0.50;;
4186;SDS011;2107;52.306;10.484;2023-05-10T13:51:22;0.70;;;0.70;;
4186;SDS011;2107;52.306;10.484;2023-05-10T13:53:51;0.70;;;0.70;;
4186;SDS011;2107;52.306;10.484;2023-05-10T13:56:17;0.30;;;0.30;;
4186;SDS011;2107;52.306;10.484;2023-05-10T13:58:44;0.40;;;0.40;;
4186;SDS011;2107;52.306;10.484;2023-05-10T14:01:11;0.40;;;0.40;;
4186;SDS011;2107;52.306;10.484;2023-05-10T14:03:38;0.50;;;0.50;;
4186;SDS011;2107;52.306;10.484;2023-05-10T14:06:05;0.30;;;0.30;;
4186;SDS011;2107;52.306;10.484;2023-05-10T14:08:32;0.43;;;0.43;;
4186;SDS011;2107;52.306;10.484;2023-05-10T14:11:00;0.40;;;0.40;;
4186;SDS011;2107;52.306;10.484;2023-05-10T14:13:27;0.40;;;0.40;;
4186;SDS011;2107;52.306;10.484;2023-05-10T14:15:54;0.30;;;0.30;;
4186;SDS011;2107;52.306;10.484;2023-05-10T14:18:21;0.40;;;0.40;;
4186;SDS011;2107;52.306;10.484;2023-05-10T14:20:48;0.40;;;0.40;;
4186;SDS011;2107;52.306;10.484;2023-05-10T14:23:15;0.30;;;0.30;;
4186;SDS011;2107;52.306;10.484;2023-05-10T14:25:42;0.30;;;0.30;;
4186;SDS011;2107;52.306;10.484;2023-05-10T14:28:10;0.40;;;0.40;;
4186;SDS011;2107;52.306;10.484;2023-05-10T14:30:37;0.50;;;0.50;;
4186;SDS011;2107;52.306;10.484;2023-05-10T14:33:05;0.80;;;0.80;;
4186;SDS011;2107;52.306;10.484;2023-05-10T14:35:33;0.80;;;0.80;;
4186;SDS011;2107;52.306;10.484;2023-05-10T14:38:01;0.80;;;0.80;;
4186;SDS011;2107;52.306;10.484;2023-05-10T14:40:28;1.10;;;1.10;;
4186;SDS011;2107;52.306;10.484;2023-05-10T14:42:55;0.80;;;0.80;;
4186;SDS011;2107;52.306;10.484;2023-05-10T14:45:23;0.90;;;0.90;;
4186;SDS011;2107;52.306;10.484;2023-05-10T14:47:50;1.20;;;1.20;;
4186;SDS011;2107;52.306;10.484;2023-05-10T14:50:17;0.90;;;0.90;;
4186;SDS011;2107;52.306;10.484;2023-05-10T14:52:44;0.80;;;0.80;;
4186;SDS011;2107;52.306;10.484;2023-05-10T14:55:11;0.90;;;0.90;;
4186;SDS011;2107;52.306;10.484;2023-05-10T14:57:38;1.03;;;1.03;;
4186;SDS011;2107;52.306;10.484;2023-05-10T15:00:05;1.07;;;1.07;;
4186;SDS011;2107;52.306;10.484;2023-05-10T15:02:34;1.00;;;1.00;;
4186;SDS011;2107;52.306;10.484;2023-05-10T15:05:01;1.20;;;1.20;;
4186;SDS011;2107;52.306;10.484;2023-05-10T15:07:28;1.00;;;1.00;;
4186;SDS011;2107;52.306;10.484;2023-05-10T15:09:56;0.80;;;0.80;;
4186;SDS011;2107;52.306;10.484;2023-05-10T15:12:23;0.87;;;0.87;;
4186;SDS011;2107;52.306;10.484;2023-05-10T15:14:50;1.00;;;1.00;;
4186;SDS011;2107;52.306;10.484;2023-05-10T15:17:16;1.10;;;1.10;;